Henrys Chapel, Texas
Current Conditions -  °F | °C
As of 2:55 PM on Thursday 18 Dec 2014 (Local Time) from KJSO Reporting Station
Haze Haze  
Wind Chill: 51°   Ceiling: 300
Heat Index: 51°   Visibility: 2mi
Dew Point: 50°   Wind: 3mph
Humidity: 95%   Direction: 70°ENE
Pressure: 30.1"   Gusts: NA
Location:  32.0774°N, 95.1103°W
Report Text: KJSO 182055Z AUTO 07003KT 2SM BR OVC003 10/10 A3010 RMK AO2 T01070100
Loading
Personal Weather Stations






























Interactive Weather Map New forecast layout! Learn more

10-Day Weather Forecast

Advertisements
Track Severe Weather on mobile